createdAt,value
2018-12-30T00:00:22.391Z,21.77
2018-12-30T00:02:52.661Z,12.63
2018-12-30T00:05:23.205Z,17.87
2018-12-30T00:07:53.788Z,17.47
2018-12-30T00:10:23.873Z,19.97
2018-12-30T00:12:53.980Z,19.23
2018-12-30T00:15:27.139Z,18.00
2018-12-30T00:17:57.353Z,14.37
2018-12-30T00:20:31.702Z,17.10
2018-12-30T00:23:02.845Z,12.73
2018-12-30T00:25:33.154Z,15.43
2018-12-30T00:28:03.271Z,15.17
2018-12-30T00:30:33.772Z,15.97
2018-12-30T00:33:04.321Z,16.27
2018-12-30T00:35:34.483Z,13.13
2018-12-30T00:38:08.386Z,16.70
2018-12-30T00:40:38.820Z,18.17
2018-12-30T00:43:08.961Z,14.10
2018-12-30T00:45:39.338Z,14.20
2018-12-30T00:48:09.635Z,14.40
2018-12-30T00:50:40.462Z,17.20
2018-12-30T00:53:10.607Z,12.97
2018-12-30T00:55:40.894Z,13.10
2018-12-30T00:58:12.278Z,15.80
2018-12-30T01:00:42.517Z,16.47
2018-12-30T01:03:12.765Z,15.63
2018-12-30T01:05:44.577Z,15.80
2018-12-30T01:08:14.804Z,11.77
2018-12-30T01:10:44.964Z,15.30
2018-12-30T01:13:15.116Z,16.63
2018-12-30T01:15:45.323Z,18.30
2018-12-30T01:18:15.505Z,14.97
2018-12-30T01:20:46.251Z,16.17
2018-12-30T01:23:18.040Z,15.63
2018-12-30T01:25:48.458Z,19.30
2018-12-30T01:28:18.591Z,14.10
2018-12-30T01:30:48.721Z,9.43
2018-12-30T01:33:18.831Z,14.83
2018-12-30T01:35:48.993Z,12.90
2018-12-30T01:38:19.100Z,14.90
2018-12-30T01:40:49.333Z,14.20
2018-12-30T01:43:19.534Z,12.23
2018-12-30T01:45:49.692Z,18.97
2018-12-30T01:48:19.809Z,14.63
2018-12-30T01:50:50.368Z,17.03
2018-12-30T01:53:20.748Z,15.63
2018-12-30T01:55:52.579Z,16.30
2018-12-30T01:58:22.714Z,14.13
2018-12-30T02:00:52.891Z,19.73
2018-12-30T02:03:23.338Z,11.63
2018-12-30T02:05:53.517Z,14.97
2018-12-30T02:08:24.332Z,20.37
2018-12-30T02:10:54.531Z,20.57
2018-12-30T02:13:24.704Z,17.20
2018-12-30T02:15:54.893Z,16.83
2018-12-30T02:18:27.837Z,16.97
2018-12-30T02:20:58.331Z,15.73
2018-12-30T02:23:28.521Z,12.57
2018-12-30T02:25:58.861Z,11.80
2018-12-30T02:28:32.654Z,9.47
2018-12-30T02:31:03.070Z,10.67
2018-12-30T02:33:33.187Z,13.97
2018-12-30T02:36:03.605Z,13.53
2018-12-30T02:38:33.711Z,10.43
2018-12-30T02:41:07.532Z,12.73
2018-12-30T02:43:37.600Z,20.73
2018-12-30T02:46:07.748Z,13.70
2018-12-30T02:48:37.853Z,15.57
2018-12-30T02:51:08.051Z,14.40
2018-12-30T02:53:38.172Z,14.97
2018-12-30T02:56:08.330Z,10.07
2018-12-30T02:58:41.657Z,15.37
2018-12-30T03:01:11.704Z,14.03
2018-12-30T03:03:41.920Z,12.60
2018-12-30T03:06:12.071Z,14.27
2018-12-30T03:08:42.773Z,10.37
2018-12-30T03:11:12.939Z,14.83
2018-12-30T03:13:43.171Z,10.57
2018-12-30T03:16:13.433Z,10.80
2018-12-30T03:18:45.376Z,15.57
2018-12-30T03:21:18.024Z,11.23
2018-12-30T03:23:48.104Z,13.33
2018-12-30T03:26:18.154Z,12.07
2018-12-30T03:28:48.197Z,12.90
2018-12-30T03:31:19.094Z,10.17
2018-12-30T03:33:49.128Z,16.80
2018-12-30T03:36:19.169Z,18.80
2018-12-30T03:38:50.901Z,16.43
2018-12-30T03:41:21.288Z,14.97
2018-12-30T03:43:51.375Z,22.30
2018-12-30T03:46:21.588Z,16.60
2018-12-30T03:48:51.896Z,14.73
2018-12-30T03:51:21.986Z,11.30
2018-12-30T03:53:52.176Z,9.77
2018-12-30T03:56:22.537Z,15.30
2018-12-30T03:58:52.664Z,14.10
2018-12-30T04:01:22.897Z,15.60
2018-12-30T04:03:52.977Z,22.17
2018-12-30T04:06:23.270Z,20.73
2018-12-30T04:08:53.676Z,16.50
2018-12-30T04:11:23.910Z,21.83
2018-12-30T04:13:54.331Z,16.00
2018-12-30T04:16:24.512Z,20.33
2018-12-30T04:18:54.544Z,23.27
2018-12-30T04:21:24.649Z,20.93
2018-12-30T04:23:54.683Z,26.87
2018-12-30T04:26:26.723Z,22.20
2018-12-30T04:28:56.899Z,23.53
2018-12-30T04:31:27.070Z,19.03
2018-12-30T04:33:57.204Z,19.97
2018-12-30T04:36:27.506Z,24.37
2018-12-30T04:38:57.632Z,18.70
2018-12-30T04:41:27.713Z,16.77
2018-12-30T04:43:57.740Z,17.83
2018-12-30T04:46:28.035Z,22.47
2018-12-30T04:48:58.069Z,22.50
2018-12-30T04:51:28.199Z,20.27
2018-12-30T04:53:58.242Z,21.00
2018-12-30T04:56:28.476Z,10.40
2018-12-30T04:58:58.685Z,21.80
2018-12-30T05:01:28.779Z,22.43
2018-12-30T05:03:59.189Z,25.07
2018-12-30T05:06:29.425Z,20.53
2018-12-30T05:08:59.472Z,21.73
2018-12-30T05:11:29.536Z,21.90
2018-12-30T05:13:59.595Z,23.47
2018-12-30T05:16:29.726Z,21.67
2018-12-30T05:18:59.795Z,25.80
2018-12-30T05:21:30.142Z,16.23
2018-12-30T05:24:00.298Z,17.83
2018-12-30T05:26:30.418Z,22.00
2018-12-30T05:29:00.663Z,22.47
2018-12-30T05:31:30.915Z,24.37
2018-12-30T05:34:01.143Z,19.90
2018-12-30T05:36:31.296Z,25.20
2018-12-30T05:39:02.923Z,24.40
2018-12-30T05:41:32.996Z,23.23
2018-12-30T05:44:03.103Z,25.30
2018-12-30T05:46:33.243Z,24.50
2018-12-30T05:49:03.356Z,21.67
2018-12-30T05:51:33.558Z,22.67
2018-12-30T05:54:03.677Z,25.30
2018-12-30T05:56:36.512Z,22.73
2018-12-30T05:59:06.581Z,23.90
2018-12-30T06:01:36.930Z,31.17
2018-12-30T06:04:06.998Z,25.07
2018-12-30T06:06:37.121Z,21.80
2018-12-30T06:09:07.933Z,22.27
2018-12-30T06:11:38.109Z,23.87
2018-12-30T06:14:08.377Z,25.47
2018-12-30T06:16:38.544Z,23.97
2018-12-30T06:19:08.656Z,22.93
2018-12-30T06:21:38.888Z,27.43
2018-12-30T06:24:09.298Z,26.93
2018-12-30T06:26:39.450Z,18.23
2018-12-30T06:29:09.496Z,18.20
2018-12-30T06:31:40.513Z,20.40
2018-12-30T06:34:10.682Z,19.27
2018-12-30T06:36:40.939Z,17.87
2018-12-30T06:39:11.063Z,16.73
2018-12-30T06:41:41.430Z,20.20
2018-12-30T06:44:11.830Z,19.07
2018-12-30T06:46:41.912Z,18.70
2018-12-30T06:49:11.961Z,20.07
2018-12-30T06:51:44.603Z,18.17
2018-12-30T06:54:14.622Z,25.57
2018-12-30T06:56:44.797Z,24.33
2018-12-30T06:59:14.865Z,25.30
2018-12-30T07:01:44.938Z,27.43
2018-12-30T07:04:15.092Z,21.93
2018-12-30T07:06:47.590Z,33.67
2018-12-30T07:09:18.151Z,33.47
2018-12-30T07:11:48.337Z,27.30
2018-12-30T07:14:18.494Z,31.97
2018-12-30T07:16:48.723Z,29.20
2018-12-30T07:19:18.884Z,26.03
2018-12-30T07:21:49.150Z,34.47
2018-12-30T07:24:19.277Z,27.73
2018-12-30T07:26:49.344Z,25.60
2018-12-30T07:29:19.369Z,27.77
2018-12-30T07:31:49.456Z,28.90
2018-12-30T07:34:19.489Z,25.07
2018-12-30T07:36:49.587Z,24.93
2018-12-30T07:39:19.687Z,31.80
2018-12-30T07:41:49.767Z,27.90
2018-12-30T07:44:19.783Z,29.67
2018-12-30T07:46:49.933Z,26.57
2018-12-30T07:49:19.974Z,24.53
2018-12-30T07:51:50.124Z,25.60
2018-12-30T07:54:20.184Z,26.37
2018-12-30T07:56:55.340Z,23.90
2018-12-30T07:59:25.383Z,21.77
2018-12-30T08:01:55.614Z,25.70
2018-12-30T08:04:25.941Z,26.40
2018-12-30T08:06:56.070Z,21.77
2018-12-30T08:09:26.184Z,20.33
2018-12-30T08:11:56.290Z,18.97
2018-12-30T08:14:26.448Z,22.60
2018-12-30T08:16:56.766Z,18.30
2018-12-30T08:19:26.910Z,18.47
2018-12-30T08:21:57.076Z,15.00
2018-12-30T08:24:27.774Z,22.33
2018-12-30T08:26:57.985Z,21.83
2018-12-30T08:29:28.183Z,22.20
2018-12-30T08:31:58.345Z,22.97
2018-12-30T08:34:33.093Z,21.67
2018-12-30T08:37:05.430Z,28.43
2018-12-30T08:39:35.485Z,22.93
2018-12-30T08:42:05.635Z,19.83
2018-12-30T08:44:35.681Z,24.23
2018-12-30T08:47:05.983Z,26.47
2018-12-30T08:49:36.159Z,22.17
2018-12-30T08:52:06.264Z,22.63
2018-12-30T08:54:39.625Z,21.87
2018-12-30T08:57:09.722Z,18.70
2018-12-30T08:59:39.902Z,21.33
2018-12-30T09:02:17.017Z,20.57
2018-12-30T09:04:47.136Z,26.50
2018-12-30T09:07:17.275Z,25.30
2018-12-30T09:09:49.385Z,20.57
2018-12-30T09:12:19.645Z,22.63
2018-12-30T09:14:52.394Z,23.57
2018-12-30T09:17:22.474Z,21.37
2018-12-30T09:19:53.214Z,22.93
2018-12-30T09:22:23.294Z,17.67
2018-12-30T09:24:53.446Z,20.63
2018-12-30T09:27:23.855Z,15.07
2018-12-30T09:29:54.002Z,20.00
2018-12-30T09:32:24.149Z,19.53
2018-12-30T09:34:54.393Z,19.27
2018-12-30T09:37:27.989Z,16.53
2018-12-30T09:39:58.168Z,19.83
2018-12-30T09:42:31.104Z,20.57
2018-12-30T09:45:02.842Z,17.20
2018-12-30T09:47:33.227Z,20.40
2018-12-30T09:50:03.447Z,16.83
2018-12-30T09:52:33.510Z,18.13
2018-12-30T09:55:03.702Z,18.17
2018-12-30T09:57:33.925Z,17.13
2018-12-30T10:00:05.179Z,18.13
2018-12-30T10:02:35.264Z,16.00
2018-12-30T10:05:05.553Z,16.53
2018-12-30T10:07:39.189Z,16.07
2018-12-30T10:10:09.331Z,15.60
2018-12-30T10:12:39.656Z,18.37
2018-12-30T10:15:10.477Z,17.30
2018-12-30T10:17:53.088Z,16.10
2018-12-30T10:20:23.239Z,17.13
2018-12-30T10:22:58.768Z,18.17
2018-12-30T10:25:25.609Z,22.73
2018-12-30T10:27:55.936Z,18.70
2018-12-30T10:30:26.721Z,15.30
2018-12-30T10:32:57.304Z,17.50
2018-12-30T10:35:27.413Z,13.87
2018-12-30T10:37:59.796Z,16.07
2018-12-30T10:40:29.819Z,14.87
2018-12-30T10:42:59.908Z,17.77
2018-12-30T10:45:31.749Z,13.67
2018-12-30T10:48:01.942Z,14.43
2018-12-30T10:50:32.299Z,15.50
2018-12-30T10:53:02.470Z,14.03
2018-12-30T10:55:32.522Z,15.13
2018-12-30T10:58:06.374Z,14.90
2018-12-30T11:00:36.461Z,17.37
2018-12-30T11:03:08.045Z,14.17
2018-12-30T11:05:38.603Z,14.93
2018-12-30T11:08:09.508Z,15.43
2018-12-30T11:10:39.672Z,17.10
2018-12-30T11:13:10.265Z,13.83
2018-12-30T11:15:52.102Z,16.20
2018-12-30T11:18:34.007Z,14.77
2018-12-30T11:21:05.058Z,16.43
2018-12-30T11:23:38.759Z,15.63
2018-12-30T11:26:08.814Z,15.33
2018-12-30T11:28:38.897Z,18.40
2018-12-30T11:31:09.028Z,15.53
2018-12-30T11:33:40.601Z,16.90
2018-12-30T11:36:10.661Z,15.70
2018-12-30T11:38:40.806Z,21.20
2018-12-30T11:41:10.883Z,14.27
2018-12-30T11:43:41.068Z,14.83
2018-12-30T11:46:11.141Z,19.23
2018-12-30T11:48:41.368Z,18.30
2018-12-30T11:51:11.588Z,17.93
2018-12-30T11:53:41.933Z,19.40
2018-12-30T11:56:11.994Z,20.13
2018-12-30T11:58:42.091Z,19.27
2018-12-30T12:01:12.229Z,23.97
2018-12-30T12:03:42.669Z,22.53
2018-12-30T12:06:12.758Z,22.33
2018-12-30T12:08:42.853Z,22.53
2018-12-30T12:11:12.955Z,21.20
2018-12-30T12:13:43.272Z,22.17
2018-12-30T12:16:15.423Z,21.10
2018-12-30T12:18:45.627Z,23.17
2018-12-30T12:21:16.022Z,21.50
2018-12-30T12:23:46.192Z,21.83
2018-12-30T12:26:16.223Z,21.13
2018-12-30T12:28:46.273Z,20.60
2018-12-30T12:31:16.552Z,22.27
2018-12-30T12:33:46.690Z,22.87
2018-12-30T12:36:16.985Z,23.07
2018-12-30T12:38:47.147Z,23.57
2018-12-30T12:41:17.359Z,25.27
2018-12-30T12:43:47.752Z,22.50
2018-12-30T12:46:17.796Z,22.93
2018-12-30T12:48:51.117Z,21.70
2018-12-30T12:51:27.890Z,24.53
2018-12-30T12:53:58.190Z,21.17
2018-12-30T12:56:30.109Z,21.90
2018-12-30T12:59:00.649Z,22.27
2018-12-30T13:01:30.869Z,29.73
2018-12-30T13:04:02.471Z,37.83
2018-12-30T13:06:32.727Z,43.97
2018-12-30T13:09:04.089Z,28.97
2018-12-30T13:11:34.567Z,26.07
2018-12-30T13:14:04.966Z,26.40
2018-12-30T13:16:35.223Z,29.73
2018-12-30T13:19:05.713Z,32.50
2018-12-30T13:21:36.268Z,27.13
2018-12-30T13:24:06.644Z,28.67
2018-12-30T13:26:37.267Z,28.70
2018-12-30T13:29:07.788Z,32.17
2018-12-30T13:31:37.866Z,30.90
2018-12-30T13:34:11.419Z,33.23
2018-12-30T13:36:41.524Z,33.00
2018-12-30T13:39:12.008Z,31.30
2018-12-30T13:41:42.150Z,33.77
2018-12-30T13:44:12.329Z,34.33
2018-12-30T13:46:42.509Z,36.97
2018-12-30T13:49:12.722Z,39.90
2018-12-30T13:51:42.966Z,43.33
2018-12-30T13:54:13.049Z,41.50
2018-12-30T13:56:43.158Z,44.37
2018-12-30T13:59:13.255Z,41.57
2018-12-30T14:01:44.204Z,40.70
2018-12-30T14:04:14.310Z,43.70
2018-12-30T14:06:45.707Z,42.77
2018-12-30T14:09:15.882Z,45.93
2018-12-30T14:11:46.289Z,47.67
2018-12-30T14:14:16.687Z,45.57
2018-12-30T14:16:47.088Z,50.47
2018-12-30T14:19:17.500Z,48.87
2018-12-30T14:21:47.752Z,50.43
2018-12-30T14:24:17.990Z,53.37
2018-12-30T14:26:48.072Z,53.17
2018-12-30T14:29:18.697Z,45.60
2018-12-30T14:31:49.211Z,52.10
2018-12-30T14:34:19.432Z,54.20
2018-12-30T14:36:49.605Z,57.30
2018-12-30T14:39:20.090Z,53.23
2018-12-30T14:41:50.296Z,56.33
2018-12-30T14:44:20.544Z,54.77
2018-12-30T14:46:55.009Z,57.57
2018-12-30T14:49:25.118Z,55.27
2018-12-30T14:51:55.837Z,55.87
2018-12-30T14:54:31.916Z,61.67
2018-12-30T14:57:05.169Z,59.40
2018-12-30T14:59:35.953Z,55.43
2018-12-30T15:02:06.112Z,52.67
2018-12-30T15:04:36.226Z,61.07
2018-12-30T15:07:06.448Z,56.97
2018-12-30T15:09:36.651Z,55.10
2018-12-30T15:12:06.798Z,49.30
2018-12-30T15:14:36.863Z,51.90
2018-12-30T15:17:07.216Z,50.83
2018-12-30T15:19:37.357Z,53.77
2018-12-30T15:22:07.557Z,48.40
2018-12-30T15:24:37.678Z,47.60
2018-12-30T15:27:07.837Z,49.63
2018-12-30T15:29:37.973Z,51.17
2018-12-30T15:32:08.272Z,46.23
2018-12-30T15:34:38.561Z,50.27
2018-12-30T15:37:10.428Z,41.03
2018-12-30T15:39:40.590Z,42.63
2018-12-30T15:42:10.618Z,43.50
2018-12-30T15:44:40.885Z,47.93
2018-12-30T15:47:11.005Z,45.40
2018-12-30T15:49:41.326Z,43.60
2018-12-30T15:52:11.525Z,46.77
2018-12-30T15:54:41.693Z,41.87
2018-12-30T15:57:11.748Z,39.90
2018-12-30T15:59:42.083Z,50.63
2018-12-30T16:02:12.201Z,42.87
2018-12-30T16:04:42.320Z,45.77
2018-12-30T16:07:12.489Z,44.77
2018-12-30T16:09:42.882Z,44.20
2018-12-30T16:12:13.079Z,42.53
2018-12-30T16:14:43.217Z,45.37
2018-12-30T16:17:13.430Z,45.57
2018-12-30T16:19:43.623Z,49.63
2018-12-30T16:22:13.934Z,49.70
2018-12-30T16:24:44.028Z,47.30
2018-12-30T16:27:14.140Z,53.00
2018-12-30T16:29:44.283Z,52.20
2018-12-30T16:32:14.603Z,54.90
2018-12-30T16:34:44.755Z,59.60
2018-12-30T16:37:14.921Z,54.87
2018-12-30T16:39:45.241Z,55.00
2018-12-30T16:42:15.394Z,58.80
2018-12-30T16:44:45.605Z,64.53
2018-12-30T16:47:15.820Z,67.63
2018-12-30T16:49:46.118Z,58.70
2018-12-30T16:52:16.255Z,65.80
2018-12-30T16:54:46.428Z,71.50
2018-12-30T16:57:16.566Z,69.77
2018-12-30T16:59:48.138Z,76.10
2018-12-30T17:02:18.286Z,80.07
2018-12-30T17:04:48.339Z,67.53
2018-12-30T17:07:21.959Z,82.27
2018-12-30T17:09:53.833Z,86.70
2018-12-30T17:12:23.877Z,87.50
2018-12-30T17:14:54.261Z,93.67
2018-12-30T17:17:24.383Z,92.00
2018-12-30T17:19:54.539Z,84.50
2018-12-30T17:22:24.661Z,86.63
2018-12-30T17:24:54.845Z,80.33
2018-12-30T17:27:27.890Z,80.97
2018-12-30T17:29:58.065Z,85.03
2018-12-30T17:32:28.273Z,77.30
2018-12-30T17:34:58.514Z,75.53
2018-12-30T17:37:28.678Z,79.77
2018-12-30T17:39:58.970Z,71.43
2018-12-30T17:42:29.116Z,67.67
2018-12-30T17:44:59.212Z,73.53
2018-12-30T17:47:29.394Z,73.03
2018-12-30T17:49:59.507Z,66.37
2018-12-30T17:52:31.293Z,64.20
2018-12-30T17:55:01.458Z,70.70
2018-12-30T17:57:31.547Z,84.67
2018-12-30T18:00:01.854Z,82.47
2018-12-30T18:02:31.982Z,80.73
2018-12-30T18:05:03.973Z,67.43
2018-12-30T18:07:34.139Z,68.73
2018-12-30T18:10:04.487Z,69.63
2018-12-30T18:12:34.870Z,68.23
2018-12-30T18:15:05.830Z,75.70
2018-12-30T18:17:41.497Z,68.43
2018-12-30T18:20:26.069Z,70.97
2018-12-30T18:23:14.201Z,71.97
2018-12-30T18:25:44.541Z,74.20
2018-12-30T18:28:32.593Z,69.27
2018-12-30T18:31:02.732Z,71.37
2018-12-30T18:33:32.979Z,69.00
2018-12-30T18:36:07.391Z,64.30
2018-12-30T18:38:37.646Z,67.90
2018-12-30T18:41:09.511Z,71.27
2018-12-30T18:43:39.682Z,72.47
2018-12-30T18:46:09.894Z,73.03
2018-12-30T18:48:40.034Z,75.37
2018-12-30T18:51:10.144Z,84.17
2018-12-30T18:53:40.343Z,82.20
2018-12-30T18:56:10.458Z,87.00
2018-12-30T18:58:40.705Z,82.97
2018-12-30T19:01:10.890Z,89.00
2018-12-30T19:03:41.026Z,87.83
2018-12-30T19:06:11.235Z,85.10
2018-12-30T19:08:41.470Z,96.20
2018-12-30T19:11:13.467Z,98.03
2018-12-30T19:13:43.605Z,93.57
2018-12-30T19:16:13.722Z,103.13
2018-12-30T19:19:01.874Z,110.23
2018-12-30T19:21:32.068Z,109.53
2018-12-30T19:24:04.092Z,109.17
2018-12-30T19:26:35.980Z,111.13
2018-12-30T19:29:06.276Z,109.77
2018-12-30T19:31:36.393Z,113.03
2018-12-30T19:34:06.539Z,106.90
2018-12-30T19:36:54.592Z,103.03
2018-12-30T19:39:24.737Z,119.43
2018-12-30T19:41:55.076Z,117.87
2018-12-30T19:44:25.327Z,112.03
2018-12-30T19:46:55.608Z,118.37
2018-12-30T19:49:25.838Z,117.30
2018-12-30T19:51:56.793Z,133.63
2018-12-30T19:54:27.687Z,127.27
2018-12-30T19:56:58.630Z,118.10
2018-12-30T19:59:29.629Z,113.60
2018-12-30T20:02:00.367Z,113.70
2018-12-30T20:04:31.083Z,102.10
2018-12-30T20:07:02.074Z,104.90
2018-12-30T20:09:33.195Z,97.37
2018-12-30T20:12:04.193Z,100.37
2018-12-30T20:14:35.226Z,121.00
2018-12-30T20:17:06.414Z,112.30
2018-12-30T20:19:37.519Z,100.80
2018-12-30T20:22:08.789Z,99.93
2018-12-30T20:24:40.023Z,115.93
2018-12-30T20:27:11.200Z,109.27
2018-12-30T20:29:42.658Z,94.33
2018-12-30T20:32:13.910Z,106.57
2018-12-30T20:34:45.310Z,95.77
2018-12-30T20:37:16.243Z,91.97
2018-12-30T20:39:47.377Z,97.43
2018-12-30T20:42:18.494Z,94.80
2018-12-30T20:44:49.519Z,103.90
2018-12-30T20:47:20.524Z,83.90
2018-12-30T20:49:53.119Z,92.37
2018-12-30T20:52:23.604Z,97.00
2018-12-30T20:54:55.920Z,96.17
2018-12-30T20:57:26.325Z,85.43
2018-12-30T20:59:56.530Z,99.77
2018-12-30T21:02:27.078Z,98.83
2018-12-30T21:04:57.618Z,99.90
2018-12-30T21:07:27.840Z,96.50
2018-12-30T21:09:57.909Z,91.80
2018-12-30T21:12:28.220Z,92.27
2018-12-30T21:14:58.377Z,74.13
2018-12-30T21:17:28.494Z,94.00
2018-12-30T21:19:58.742Z,83.50
2018-12-30T21:22:29.093Z,72.33
2018-12-30T21:24:59.381Z,70.57
2018-12-30T21:27:29.910Z,81.97
2018-12-30T21:30:00.258Z,76.10
2018-12-30T21:32:30.728Z,76.87
2018-12-30T21:35:00.957Z,89.60
2018-12-30T21:37:31.300Z,87.80
2018-12-30T21:40:01.409Z,81.53
2018-12-30T21:42:31.789Z,77.27
2018-12-30T21:45:01.879Z,81.27
2018-12-30T21:47:32.143Z,73.63
2018-12-30T21:50:02.444Z,80.07
2018-12-30T21:52:32.568Z,81.10
2018-12-30T21:55:02.731Z,82.97
2018-12-30T21:57:32.894Z,74.47
2018-12-30T22:00:03.265Z,79.67
2018-12-30T22:02:33.457Z,78.03
2018-12-30T22:05:03.831Z,78.93
2018-12-30T22:07:35.027Z,76.90
2018-12-30T22:10:06.244Z,85.33
2018-12-30T22:12:36.481Z,79.23
2018-12-30T22:15:08.013Z,80.93
2018-12-30T22:17:38.260Z,89.67
2018-12-30T22:20:08.350Z,72.17
2018-12-30T22:22:38.602Z,87.70
2018-12-30T22:25:08.701Z,94.43
2018-12-30T22:27:38.815Z,83.43
2018-12-30T22:30:09.197Z,93.33
2018-12-30T22:32:39.293Z,95.93
2018-12-30T22:35:09.642Z,87.07
2018-12-30T22:37:39.806Z,104.47
2018-12-30T22:40:09.928Z,98.97
2018-12-30T22:42:40.220Z,88.27
2018-12-30T22:45:10.280Z,101.90
2018-12-30T22:47:40.617Z,99.60
2018-12-30T22:50:10.751Z,107.43
2018-12-30T22:52:41.049Z,107.63
2018-12-30T22:55:11.099Z,116.03
2018-12-30T22:57:41.343Z,111.47
2018-12-30T23:00:22.329Z,122.40
2018-12-30T23:02:52.478Z,127.93
2018-12-30T23:05:23.023Z,130.73
2018-12-30T23:07:53.131Z,119.77
2018-12-30T23:10:23.165Z,99.90
2018-12-30T23:12:53.323Z,99.47
2018-12-30T23:15:23.464Z,120.20
2018-12-30T23:17:53.667Z,117.87
2018-12-30T23:20:23.733Z,99.33
2018-12-30T23:22:53.977Z,99.60
2018-12-30T23:25:24.178Z,119.37
2018-12-30T23:27:54.537Z,116.63
2018-12-30T23:30:24.663Z,118.30
2018-12-30T23:32:54.866Z,125.07
2018-12-30T23:35:24.956Z,131.63
2018-12-30T23:37:55.074Z,111.80
2018-12-30T23:40:25.115Z,104.47
2018-12-30T23:42:57.805Z,118.30
2018-12-30T23:45:27.876Z,126.33
2018-12-30T23:47:58.018Z,108.63
2018-12-30T23:50:28.125Z,124.30
2018-12-30T23:52:58.384Z,132.90
2018-12-30T23:55:28.937Z,102.63
2018-12-30T23:58:10.804Z,130.87
